createdAt,value
2023-02-23T00:01:42.230Z,10.53
2023-02-23T00:04:10.600Z,13.90
2023-02-23T00:09:12.281Z,11.80
2023-02-23T00:11:41.920Z,9.83
2023-02-23T00:14:10.100Z,11.57
2023-02-23T00:16:38.138Z,10.00
2023-02-23T00:19:08.307Z,10.70
2023-02-23T00:21:36.612Z,11.57
2023-02-23T00:24:08.492Z,7.87
2023-02-23T00:26:38.511Z,9.17
2023-02-23T00:29:09.534Z,12.03
2023-02-23T00:31:38.842Z,10.83
2023-02-23T00:34:07.754Z,14.70
2023-02-23T00:36:55.644Z,12.30
2023-02-23T00:39:26.758Z,8.67
2023-02-23T00:41:55.922Z,8.30
2023-02-23T00:44:26.139Z,10.37
2023-02-23T00:46:54.293Z,8.40
2023-02-23T00:49:23.508Z,9.83
2023-02-23T00:51:52.219Z,10.53
2023-02-23T00:54:22.123Z,9.57
2023-02-23T00:56:50.998Z,9.90
2023-02-23T00:59:20.290Z,8.40
2023-02-23T01:01:50.179Z,12.27
2023-02-23T01:04:18.183Z,9.33
2023-02-23T01:06:46.477Z,10.43
2023-02-23T01:09:22.075Z,7.17
2023-02-23T01:11:50.209Z,13.40
2023-02-23T01:14:18.197Z,11.40
2023-02-23T01:16:46.270Z,10.47
2023-02-23T01:19:16.016Z,11.17
2023-02-23T01:21:44.552Z,10.77
2023-02-23T01:24:13.354Z,12.27
2023-02-23T01:26:44.446Z,12.33
2023-02-23T01:29:15.664Z,10.50
2023-02-23T01:31:47.065Z,12.03
2023-02-23T01:34:16.891Z,9.50
2023-02-23T01:36:45.939Z,8.47
2023-02-23T01:39:15.896Z,10.33
2023-02-23T01:41:44.405Z,9.57
2023-02-23T01:44:45.628Z,9.70
2023-02-23T01:47:15.415Z,12.93
2023-02-23T01:49:45.089Z,12.70
2023-02-23T01:52:15.806Z,10.43
2023-02-23T01:54:50.607Z,11.00
2023-02-23T01:57:21.343Z,11.77
2023-02-23T01:59:51.178Z,12.77
2023-02-23T02:02:21.506Z,9.57
2023-02-23T02:04:52.374Z,10.07
2023-02-23T02:07:25.034Z,10.60
2023-02-23T02:10:13.512Z,10.37
2023-02-23T02:12:42.687Z,10.67
2023-02-23T02:15:17.615Z,10.17
2023-02-23T02:17:54.288Z,11.83
2023-02-23T02:20:43.006Z,11.30
2023-02-23T02:23:45.027Z,14.03
2023-02-23T02:26:22.345Z,9.53
2023-02-23T02:29:23.071Z,11.10
2023-02-23T02:32:13.958Z,11.43
2023-02-23T02:35:13.433Z,11.93
2023-02-23T02:37:56.917Z,11.33
2023-02-23T02:40:30.862Z,14.60
2023-02-23T02:43:09.096Z,11.97
2023-02-23T02:45:44.106Z,11.93
2023-02-23T02:48:18.470Z,12.27
2023-02-23T02:50:51.332Z,10.20
2023-02-23T02:53:29.720Z,10.63
2023-02-23T02:56:05.495Z,13.20
2023-02-23T02:58:34.152Z,10.73
2023-02-23T03:01:26.003Z,15.20
2023-02-23T03:04:11.687Z,15.00
2023-02-23T03:07:04.775Z,10.77
2023-02-23T03:10:00.264Z,12.87
2023-02-23T03:12:56.917Z,12.47
2023-02-23T03:15:58.003Z,11.00
2023-02-23T03:19:00.260Z,13.20
2023-02-23T03:21:52.671Z,15.60
2023-02-23T03:24:49.163Z,11.73
2023-02-23T03:27:41.859Z,11.93
2023-02-23T03:30:33.842Z,14.37
2023-02-23T03:33:26.696Z,13.80
2023-02-23T03:36:16.996Z,11.57
2023-02-23T03:39:07.528Z,10.97
2023-02-23T03:41:56.091Z,10.00
2023-02-23T03:44:49.443Z,11.53
2023-02-23T03:47:38.471Z,14.27
2023-02-23T03:50:29.963Z,13.87
2023-02-23T03:53:19.703Z,14.07
2023-02-23T03:56:10.560Z,10.13
2023-02-23T03:58:58.973Z,13.77
2023-02-23T04:01:47.617Z,14.93
2023-02-23T04:04:33.208Z,16.13
2023-02-23T04:07:20.818Z,13.00
2023-02-23T04:10:07.212Z,12.97
2023-02-23T04:12:58.547Z,10.37
2023-02-23T04:15:30.256Z,17.20
2023-02-23T04:18:00.527Z,34.97
2023-02-23T04:20:29.038Z,38.60
2023-02-23T04:22:57.186Z,44.50
2023-02-23T04:25:25.230Z,63.70
2023-02-23T04:27:53.397Z,51.57
2023-02-23T04:30:25.328Z,53.00
2023-02-23T04:32:53.620Z,40.03
2023-02-23T04:35:23.736Z,38.17
2023-02-23T04:37:51.835Z,30.67
2023-02-23T04:40:20.321Z,26.63
2023-02-23T04:42:48.690Z,19.03
2023-02-23T04:45:16.830Z,17.03
2023-02-23T04:47:44.916Z,19.30
2023-02-23T04:50:13.749Z,14.03
2023-02-23T04:52:43.632Z,12.57
2023-02-23T04:55:18.793Z,16.03
2023-02-23T04:57:48.045Z,10.67
2023-02-23T05:00:17.042Z,14.83
2023-02-23T05:02:45.495Z,13.17
2023-02-23T05:05:13.598Z,14.53
2023-02-23T05:07:42.994Z,11.33
2023-02-23T05:10:12.335Z,11.47
2023-02-23T05:12:40.330Z,8.80
2023-02-23T05:15:11.134Z,10.40
2023-02-23T05:17:41.219Z,11.87
2023-02-23T05:20:11.306Z,9.40
2023-02-23T05:22:39.242Z,10.93
2023-02-23T05:25:10.421Z,11.20
2023-02-23T05:27:38.870Z,9.93
2023-02-23T05:30:10.030Z,12.80
2023-02-23T05:32:38.059Z,11.93
2023-02-23T05:35:07.101Z,9.03
2023-02-23T05:37:35.069Z,12.77
2023-02-23T05:40:03.183Z,12.53
2023-02-23T05:42:32.784Z,10.87
2023-02-23T05:45:00.911Z,9.40
2023-02-23T05:47:28.930Z,12.23
2023-02-23T05:49:56.897Z,9.60
2023-02-23T05:52:25.035Z,12.87
2023-02-23T05:54:53.136Z,8.97
2023-02-23T05:57:21.230Z,10.60
2023-02-23T05:59:50.625Z,14.07
2023-02-23T06:02:18.646Z,9.00
2023-02-23T06:04:47.047Z,11.67
2023-02-23T06:07:15.935Z,11.07
2023-02-23T06:09:44.666Z,13.53
2023-02-23T06:12:12.938Z,10.60
2023-02-23T06:14:40.960Z,11.73
2023-02-23T06:17:10.442Z,15.20
2023-02-23T06:19:38.497Z,14.77
2023-02-23T06:22:06.516Z,13.83
2023-02-23T06:24:35.192Z,11.77
2023-02-23T06:27:03.279Z,14.10
2023-02-23T06:29:31.242Z,13.90
2023-02-23T06:32:01.124Z,12.37
2023-02-23T06:34:31.078Z,13.47
2023-02-23T06:36:59.091Z,15.07
2023-02-23T06:39:27.128Z,11.90
2023-02-23T06:41:55.372Z,11.90
2023-02-23T06:44:23.544Z,13.97
2023-02-23T06:46:51.512Z,13.63
2023-02-23T06:49:19.577Z,13.27
2023-02-23T06:51:48.971Z,12.90
2023-02-23T06:54:17.740Z,12.87
2023-02-23T06:56:46.508Z,14.43
2023-02-23T06:59:14.778Z,13.10
2023-02-23T07:01:45.028Z,15.13
2023-02-23T07:04:16.305Z,15.10
2023-02-23T07:06:44.796Z,15.27
2023-02-23T07:09:15.525Z,15.23
2023-02-23T07:11:44.786Z,16.00
2023-02-23T07:14:21.432Z,16.77
2023-02-23T07:16:54.307Z,18.47
2023-02-23T07:19:23.411Z,15.77
2023-02-23T07:21:51.600Z,11.83
2023-02-23T07:24:21.996Z,14.50
2023-02-23T07:26:50.326Z,12.23
2023-02-23T07:29:18.363Z,15.67
2023-02-23T07:31:46.737Z,13.07
2023-02-23T07:34:14.905Z,16.07
2023-02-23T07:36:42.894Z,15.17
2023-02-23T07:39:10.906Z,13.17
2023-02-23T07:41:40.366Z,14.00
2023-02-23T07:44:08.559Z,16.83
2023-02-23T07:46:36.618Z,13.13
2023-02-23T07:49:04.722Z,16.33
2023-02-23T07:51:32.800Z,13.33
2023-02-23T07:54:04.742Z,12.17
2023-02-23T07:56:32.932Z,13.53
2023-02-23T07:59:02.328Z,12.93
2023-02-23T08:01:31.060Z,11.27
2023-02-23T08:03:59.435Z,15.37
2023-02-23T08:06:27.532Z,15.33
2023-02-23T08:08:55.533Z,20.43
2023-02-23T08:11:23.529Z,15.73
2023-02-23T08:13:51.523Z,14.97
2023-02-23T08:16:20.971Z,39.10
2023-02-23T08:18:49.034Z,32.40
2023-02-23T08:21:17.465Z,13.90
2023-02-23T08:23:45.800Z,15.37
2023-02-23T08:26:13.835Z,14.93
2023-02-23T08:28:45.382Z,17.13
2023-02-23T08:31:14.250Z,14.20
2023-02-23T08:33:44.011Z,11.23
2023-02-23T08:36:12.048Z,10.87
2023-02-23T08:38:40.042Z,18.57
2023-02-23T08:41:08.054Z,17.80
2023-02-23T08:43:36.347Z,17.13
2023-02-23T08:46:04.684Z,16.30
2023-02-23T08:48:32.773Z,13.87
2023-02-23T08:51:02.295Z,17.13
2023-02-23T08:53:30.858Z,14.17
2023-02-23T08:55:59.988Z,13.40
2023-02-23T08:58:28.944Z,13.87
2023-02-23T09:00:57.203Z,15.10
2023-02-23T09:03:26.387Z,16.80
2023-02-23T09:05:54.732Z,15.67
2023-02-23T09:08:24.688Z,17.43
2023-02-23T09:10:53.725Z,15.40
2023-02-23T09:13:21.925Z,15.23
2023-02-23T09:15:49.946Z,18.87
2023-02-23T09:18:18.444Z,15.33
2023-02-23T09:20:46.856Z,18.97
2023-02-23T09:23:14.879Z,16.37
2023-02-23T09:25:45.429Z,16.43
2023-02-23T09:28:14.772Z,13.93
2023-02-23T09:30:43.827Z,13.93
2023-02-23T09:33:12.791Z,14.57
2023-02-23T09:35:41.851Z,12.33
2023-02-23T09:38:10.247Z,16.17
2023-02-23T09:40:47.553Z,21.83
2023-02-23T09:43:21.149Z,17.67
2023-02-23T09:45:52.814Z,16.20
2023-02-23T09:48:24.300Z,15.40
2023-02-23T09:50:54.337Z,16.67
2023-02-23T09:53:37.024Z,13.13
2023-02-23T09:56:13.473Z,18.90
2023-02-23T09:58:42.213Z,15.90
2023-02-23T10:01:30.012Z,18.67
2023-02-23T10:04:03.382Z,14.83
2023-02-23T10:06:31.929Z,18.93
2023-02-23T10:09:11.785Z,19.07
2023-02-23T10:11:47.244Z,17.40
2023-02-23T10:14:29.705Z,16.87
2023-02-23T10:17:10.882Z,19.30
2023-02-23T10:19:45.497Z,17.53
2023-02-23T10:22:15.798Z,19.87
2023-02-23T10:24:46.790Z,17.27
2023-02-23T10:27:19.037Z,16.97
2023-02-23T10:29:51.596Z,17.13
2023-02-23T10:32:23.861Z,19.87
2023-02-23T10:34:56.649Z,17.17
2023-02-23T10:37:26.181Z,21.67
2023-02-23T10:39:54.953Z,17.37
2023-02-23T10:42:28.941Z,22.37
2023-02-23T10:44:58.036Z,17.37
2023-02-23T10:47:28.716Z,16.30
2023-02-23T10:49:58.943Z,19.27
2023-02-23T10:52:32.848Z,16.47
2023-02-23T10:55:04.233Z,17.03
2023-02-23T10:57:39.801Z,17.03
2023-02-23T11:00:30.653Z,17.03
2023-02-23T11:02:59.999Z,19.87
2023-02-23T11:05:45.472Z,19.97
2023-02-23T11:08:22.347Z,15.07
2023-02-23T11:11:08.463Z,21.30
2023-02-23T11:13:42.644Z,20.13
2023-02-23T11:16:14.193Z,17.37
2023-02-23T11:18:44.421Z,20.80
2023-02-23T11:21:25.473Z,18.60
2023-02-23T11:23:55.585Z,15.10
2023-02-23T11:26:32.417Z,18.67
2023-02-23T11:29:11.098Z,18.53
2023-02-23T11:31:40.749Z,18.70
2023-02-23T11:34:09.211Z,19.67
2023-02-23T11:36:39.061Z,17.70
2023-02-23T11:39:22.314Z,17.00
2023-02-23T11:42:16.242Z,23.03
2023-02-23T11:44:52.205Z,17.73
2023-02-23T11:47:23.960Z,18.20
2023-02-23T11:49:52.624Z,21.00
2023-02-23T11:52:23.789Z,17.63
2023-02-23T11:54:56.262Z,16.03
2023-02-23T11:57:27.711Z,21.47
2023-02-23T11:59:58.064Z,20.27
2023-02-23T12:02:28.023Z,19.80
2023-02-23T12:05:07.361Z,19.33
2023-02-23T12:07:42.551Z,21.73
2023-02-23T12:10:23.099Z,18.50
2023-02-23T12:12:59.254Z,21.30
2023-02-23T12:15:37.264Z,18.57
2023-02-23T12:18:12.807Z,18.40
2023-02-23T12:20:43.422Z,20.30
2023-02-23T12:23:16.224Z,21.47
2023-02-23T12:25:49.955Z,19.13
2023-02-23T12:28:27.371Z,20.17
2023-02-23T12:31:01.328Z,20.93
2023-02-23T12:33:35.610Z,20.80
2023-02-23T12:36:07.390Z,20.57
2023-02-23T12:38:48.784Z,19.50
2023-02-23T12:41:27.932Z,21.67
2023-02-23T12:44:01.613Z,20.50
2023-02-23T12:46:36.429Z,19.20
2023-02-23T12:49:14.249Z,19.67
2023-02-23T12:51:47.986Z,17.73
2023-02-23T12:54:17.757Z,19.80
2023-02-23T12:56:55.909Z,22.80
2023-02-23T12:59:47.782Z,18.87
2023-02-23T13:02:24.176Z,18.50
2023-02-23T13:05:18.801Z,19.97
2023-02-23T13:08:01.907Z,21.13
2023-02-23T13:10:47.301Z,20.50
2023-02-23T13:13:26.908Z,20.20
2023-02-23T13:16:01.763Z,20.57
2023-02-23T13:18:36.845Z,22.77
2023-02-23T13:21:12.834Z,22.83
2023-02-23T13:23:55.873Z,19.50
2023-02-23T13:26:34.407Z,22.13
2023-02-23T13:29:07.242Z,20.63
2023-02-23T13:31:37.897Z,22.43
2023-02-23T13:34:12.142Z,20.60
2023-02-23T13:36:42.176Z,16.53
2023-02-23T13:39:37.179Z,20.40
2023-02-23T13:42:33.758Z,22.40
2023-02-23T13:45:17.942Z,23.67
2023-02-23T13:47:50.780Z,25.03
2023-02-23T13:50:27.079Z,19.57
2023-02-23T13:52:58.508Z,23.03
2023-02-23T13:55:53.505Z,28.73
2023-02-23T13:58:29.845Z,26.47
2023-02-23T14:01:11.778Z,32.27
2023-02-23T14:03:48.095Z,26.90
2023-02-23T14:06:20.744Z,34.37
2023-02-23T14:08:55.438Z,23.97
2023-02-23T14:11:44.110Z,34.80
2023-02-23T14:14:17.103Z,32.00
2023-02-23T14:16:47.830Z,37.27
2023-02-23T14:19:32.851Z,25.33
2023-02-23T14:22:05.556Z,19.83
2023-02-23T14:24:33.683Z,28.87
2023-02-23T14:27:41.537Z,28.17
2023-02-23T14:30:27.567Z,28.57
2023-02-23T14:32:55.743Z,25.80
2023-02-23T14:35:56.086Z,31.63
2023-02-23T14:38:47.009Z,28.97
2023-02-23T14:41:15.796Z,34.37
2023-02-23T14:43:46.505Z,24.13
2023-02-23T14:46:20.410Z,28.97
2023-02-23T14:49:00.146Z,193.73
2023-02-23T14:51:39.916Z,83.50
2023-02-23T14:54:15.722Z,165.87
2023-02-23T14:56:51.179Z,164.83
2023-02-23T14:59:21.882Z,33.60
2023-02-23T15:01:51.146Z,28.37
2023-02-23T15:04:22.536Z,53.27
2023-02-23T15:06:53.863Z,51.70
2023-02-23T15:09:32.129Z,31.67
2023-02-23T15:12:04.347Z,37.30
2023-02-23T15:14:37.331Z,31.40
2023-02-23T15:17:05.595Z,31.67
2023-02-23T15:19:37.022Z,25.03
2023-02-23T15:22:06.744Z,23.20
2023-02-23T15:24:44.287Z,24.00
2023-02-23T15:27:18.840Z,31.63
2023-02-23T15:29:47.060Z,38.27
2023-02-23T15:32:20.679Z,31.93
2023-02-23T15:34:49.367Z,28.13
2023-02-23T15:37:23.733Z,36.00
2023-02-23T15:39:57.756Z,37.27
2023-02-23T15:42:29.454Z,38.33
2023-02-23T15:45:00.978Z,32.63
2023-02-23T15:47:34.767Z,36.83
2023-02-23T15:50:08.673Z,39.30
2023-02-23T15:52:45.378Z,41.53
2023-02-23T15:55:21.823Z,49.30
2023-02-23T15:57:55.301Z,62.00
2023-02-23T16:00:32.674Z,41.20
2023-02-23T16:03:02.810Z,59.93
2023-02-23T16:05:41.803Z,40.57
2023-02-23T16:08:23.095Z,36.93
2023-02-23T16:10:57.557Z,50.80
2023-02-23T16:13:27.314Z,34.23
2023-02-23T16:15:56.341Z,35.73
2023-02-23T16:18:35.937Z,60.90
2023-02-23T16:21:06.145Z,52.63
2023-02-23T16:23:38.147Z,59.87
2023-02-23T16:26:12.427Z,46.90
2023-02-23T16:28:45.157Z,56.23
2023-02-23T16:31:16.021Z,56.07
2023-02-23T16:33:48.655Z,53.93
2023-02-23T16:36:22.119Z,52.97
2023-02-23T16:38:59.179Z,51.67
2023-02-23T16:41:31.079Z,51.80
2023-02-23T16:44:01.222Z,52.37
2023-02-23T16:46:31.684Z,44.73
2023-02-23T16:49:10.120Z,48.60
2023-02-23T16:51:38.595Z,54.70
2023-02-23T16:54:08.436Z,50.30
2023-02-23T16:56:40.125Z,47.47
2023-02-23T16:59:09.615Z,45.57
2023-02-23T17:01:38.917Z,52.07
2023-02-23T17:04:15.320Z,39.60
2023-02-23T17:06:43.877Z,39.97
2023-02-23T17:09:12.739Z,44.03
2023-02-23T17:11:43.961Z,51.50
2023-02-23T17:14:20.529Z,76.60
2023-02-23T17:16:48.646Z,144.83
2023-02-23T17:19:18.678Z,278.20
2023-02-23T17:21:49.097Z,176.87
2023-02-23T17:24:17.420Z,109.47
2023-02-23T17:26:46.839Z,85.53
2023-02-23T17:29:14.824Z,109.87
2023-02-23T17:31:43.491Z,141.80
2023-02-23T17:34:11.772Z,150.30
2023-02-23T17:36:40.068Z,225.23
2023-02-23T17:39:09.641Z,183.23
2023-02-23T17:41:37.636Z,148.77
2023-02-23T17:44:07.224Z,174.17
2023-02-23T17:46:36.069Z,232.50
2023-02-23T17:49:04.556Z,176.37
2023-02-23T17:51:32.552Z,187.10
2023-02-23T17:54:00.538Z,155.67
2023-02-23T17:56:31.306Z,318.10
2023-02-23T17:58:59.356Z,182.00
2023-02-23T18:01:28.828Z,118.37
2023-02-23T18:03:58.588Z,109.80
2023-02-23T18:06:26.652Z,320.37
2023-02-23T18:08:54.638Z,268.43
2023-02-23T18:11:23.281Z,243.63
2023-02-23T18:13:51.710Z,138.43
2023-02-23T18:16:20.438Z,103.73
2023-02-23T18:18:50.640Z,131.47
2023-02-23T18:21:21.588Z,168.17
2023-02-23T18:23:50.604Z,135.13
2023-02-23T18:26:20.440Z,133.13
2023-02-23T18:28:48.572Z,194.43
2023-02-23T18:31:19.578Z,251.17
2023-02-23T18:33:49.981Z,177.53
2023-02-23T18:36:19.794Z,215.80
2023-02-23T18:38:47.850Z,185.67
2023-02-23T18:41:16.145Z,191.17
2023-02-23T18:43:44.153Z,172.10
2023-02-23T18:46:14.217Z,174.77
2023-02-23T18:48:42.662Z,137.60
2023-02-23T18:51:14.308Z,176.03
2023-02-23T18:53:44.784Z,196.90
2023-02-23T18:56:16.013Z,177.60
2023-02-23T18:58:46.223Z,119.30
2023-02-23T19:01:18.194Z,179.33
2023-02-23T19:03:46.653Z,160.20
2023-02-23T19:06:16.984Z,195.27
2023-02-23T19:08:45.955Z,236.87
2023-02-23T19:11:14.037Z,110.77
2023-02-23T19:13:42.058Z,73.73
2023-02-23T19:16:10.142Z,77.03
2023-02-23T19:18:38.185Z,160.37
2023-02-23T19:21:08.426Z,152.73
2023-02-23T19:23:38.685Z,102.30
2023-02-23T19:26:06.981Z,112.33
2023-02-23T19:28:35.168Z,149.13
2023-02-23T19:31:04.496Z,127.83
2023-02-23T19:33:32.737Z,200.23
2023-02-23T19:36:01.479Z,97.13
2023-02-23T19:38:30.187Z,102.37
2023-02-23T19:40:59.718Z,90.77
2023-02-23T19:43:27.719Z,124.50
2023-02-23T19:45:55.900Z,78.00
2023-02-23T19:48:25.400Z,84.47
2023-02-23T19:50:54.797Z,110.23
2023-02-23T19:53:22.889Z,84.60
2023-02-23T19:56:01.202Z,77.43
2023-02-23T19:58:29.229Z,105.73
2023-02-23T20:00:59.886Z,106.23
2023-02-23T20:03:28.607Z,104.60
2023-02-23T20:05:57.475Z,126.20
2023-02-23T20:08:26.266Z,109.70
2023-02-23T20:10:54.444Z,97.50
2023-02-23T20:13:24.257Z,77.40
2023-02-23T20:16:00.516Z,77.13
2023-02-23T20:18:28.755Z,84.10
2023-02-23T20:20:56.818Z,73.30
2023-02-23T20:23:24.842Z,77.13
2023-02-23T20:25:52.817Z,70.67
2023-02-23T20:28:20.940Z,68.13
2023-02-23T20:30:50.821Z,73.80
2023-02-23T20:33:18.824Z,65.00
2023-02-23T20:35:47.213Z,66.93
2023-02-23T20:38:15.406Z,62.00
2023-02-23T20:40:44.745Z,59.80
2023-02-23T20:43:13.158Z,73.20
2023-02-23T20:45:41.693Z,66.27
2023-02-23T20:48:11.325Z,60.40
2023-02-23T20:50:39.611Z,58.83
2023-02-23T20:53:08.852Z,53.20
2023-02-23T20:55:37.000Z,58.00
2023-02-23T20:58:07.078Z,59.37
2023-02-23T21:00:35.487Z,57.63
2023-02-23T21:03:05.175Z,59.47
2023-02-23T21:05:40.491Z,55.97
2023-02-23T21:08:10.195Z,52.80
2023-02-23T21:10:40.335Z,51.37
2023-02-23T21:13:10.387Z,52.70
2023-02-23T21:15:39.375Z,49.73
2023-02-23T21:18:08.189Z,53.67
2023-02-23T21:20:39.285Z,52.27
2023-02-23T21:23:07.458Z,56.83
2023-02-23T21:25:35.526Z,55.00
2023-02-23T21:28:03.924Z,53.17
2023-02-23T21:30:31.944Z,56.60
2023-02-23T21:33:00.232Z,48.37
2023-02-23T21:35:28.562Z,57.47
2023-02-23T21:37:57.956Z,55.43
2023-02-23T21:40:26.031Z,57.77
2023-02-23T21:42:54.293Z,62.93
2023-02-23T21:45:22.380Z,56.57
2023-02-23T21:47:50.671Z,54.87
2023-02-23T21:50:20.111Z,49.53
2023-02-23T21:52:54.103Z,57.77
2023-02-23T21:55:23.658Z,59.23
2023-02-23T21:57:52.766Z,56.97
2023-02-23T22:00:22.966Z,60.20
2023-02-23T22:02:52.299Z,55.43
2023-02-23T22:05:21.577Z,57.63
2023-02-23T22:07:50.779Z,60.73
2023-02-23T22:10:19.751Z,55.87
2023-02-23T22:12:50.629Z,57.20
2023-02-23T22:15:18.846Z,61.23
2023-02-23T22:17:47.002Z,66.67
2023-02-23T22:20:15.421Z,59.33
2023-02-23T22:22:43.458Z,60.97
2023-02-23T22:25:11.771Z,62.40
2023-02-23T22:27:41.628Z,60.53
2023-02-23T22:30:13.953Z,67.37
2023-02-23T22:32:42.880Z,65.50
2023-02-23T22:35:12.389Z,63.33
2023-02-23T22:37:41.067Z,67.67
2023-02-23T22:40:13.674Z,71.00
2023-02-23T22:42:43.385Z,63.80
2023-02-23T22:45:13.459Z,63.13
2023-02-23T22:47:41.408Z,57.17
2023-02-23T22:50:12.133Z,58.53
2023-02-23T22:52:40.903Z,60.77
2023-02-23T22:55:09.776Z,57.90
2023-02-23T22:57:38.072Z,65.10
2023-02-23T23:00:10.355Z,59.20
2023-02-23T23:02:39.741Z,56.27
2023-02-23T23:05:09.235Z,61.23
2023-02-23T23:07:37.383Z,66.53
2023-02-23T23:10:09.290Z,58.10
2023-02-23T23:12:38.084Z,61.50
2023-02-23T23:15:14.665Z,64.43
2023-02-23T23:17:48.175Z,68.87
2023-02-23T23:20:17.711Z,66.27
2023-02-23T23:22:45.754Z,70.47
2023-02-23T23:25:15.664Z,59.73
2023-02-23T23:27:45.807Z,59.70
2023-02-23T23:30:15.468Z,59.07
2023-02-23T23:32:45.655Z,58.37
2023-02-23T23:35:15.309Z,66.97
2023-02-23T23:37:43.361Z,63.30
2023-02-23T23:40:15.109Z,55.57
2023-02-23T23:42:46.182Z,65.17
2023-02-23T23:45:16.335Z,60.53
2023-02-23T23:47:46.097Z,55.70
2023-02-23T23:50:16.706Z,61.07
2023-02-23T23:52:46.053Z,61.03
2023-02-23T23:55:15.723Z,66.97
2023-02-23T23:57:43.841Z,53.53
